Time;durP1;ratioP1;P1;durP2;ratioP2;P2;SDS_P1;SDS_P2;PMS_P1;PMS_P2;Temp;Humidity;BMP_temperature;BMP_pressure;BME280_temperature;BME280_humidity;BME280_pressure;Samples;Min_cycle;Max_cycle;Signal;HPM_P1;HPM_P2
2024/01/09 00:01:35;;;;;;;4.40;3.00;;;-2.70;99.90;;;;;;5014218;28;20471;-74
2024/01/09 00:04:03;;;;;;;5.03;2.90;;;-2.80;99.90;;;;;;5014262;28;20448;-74
2024/01/09 00:06:32;;;;;;;5.00;3.23;;;-2.80;99.90;;;;;;5014272;28;20443;-74
2024/01/09 00:09:00;;;;;;;4.77;3.27;;;-2.80;99.90;;;;;;5014148;28;20796;-74
2024/01/09 00:11:28;;;;;;;4.93;3.27;;;-2.80;99.90;;;;;;5013235;28;20837;-74
2024/01/09 00:13:57;;;;;;;5.20;3.43;;;-2.90;99.90;;;;;;5013313;28;20436;-74
2024/01/09 00:16:26;;;;;;;4.67;2.93;;;-2.90;99.90;;;;;;5014238;28;20539;-74
2024/01/09 00:18:55;;;;;;;4.70;3.33;;;-2.90;99.90;;;;;;5014144;28;20509;-74
2024/01/09 00:21:24;;;;;;;5.57;3.30;;;-2.90;99.90;;;;;;5012613;28;20510;-74
2024/01/09 00:23:52;;;;;;;8.70;3.70;;;-2.90;99.90;;;;;;5013137;28;20444;-74
2024/01/09 00:26:22;;;;;;;6.37;4.70;;;-3.00;99.90;;;;;;5014119;28;20443;-74
2024/01/09 00:28:50;;;;;;;4.43;3.30;;;-3.00;99.90;;;;;;5013872;28;20440;-74
2024/01/09 00:31:18;;;;;;;8.17;4.70;;;-3.00;99.90;;;;;;5012507;28;20546;-74
2024/01/09 00:33:46;;;;;;;4.63;3.13;;;-3.00;99.90;;;;;;5013806;28;20490;-74
2024/01/09 00:36:16;;;;;;;4.20;2.90;;;-3.00;99.90;;;;;;5011805;28;20487;-74
2024/01/09 00:38:45;;;;;;;4.00;3.10;;;-3.00;99.90;;;;;;5012408;28;20440;-74
2024/01/09 00:41:13;;;;;;;5.70;3.40;;;-3.10;99.90;;;;;;5012424;28;20456;-74
2024/01/09 00:43:41;;;;;;;5.40;3.20;;;-3.10;99.90;;;;;;5014114;28;20439;-74
2024/01/09 00:46:09;;;;;;;4.03;3.00;;;-3.10;99.90;;;;;;5013602;28;20514;-74
2024/01/09 00:48:38;;;;;;;4.63;2.93;;;-3.20;99.90;;;;;;5012449;28;20439;-74
2024/01/09 00:51:06;;;;;;;5.03;3.43;;;-3.20;99.90;;;;;;5013548;28;20852;-74
2024/01/09 00:53:36;;;;;;;5.93;3.90;;;-3.20;99.90;;;;;;5012334;28;20845;-74
2024/01/09 00:56:05;;;;;;;4.53;3.73;;;-3.20;99.90;;;;;;5012318;28;20455;-74
2024/01/09 00:58:33;;;;;;;5.57;3.47;;;-3.20;99.90;;;;;;5014127;28;20471;-74
2024/01/09 01:01:02;;;;;;;5.30;3.83;;;-3.30;99.90;;;;;;5013773;28;20470;-74
2024/01/09 01:03:30;;;;;;;3.80;3.23;;;-3.30;99.90;;;;;;5012214;28;20985;-74
2024/01/09 01:05:58;;;;;;;4.60;3.33;;;-3.30;99.90;;;;;;5013455;28;20436;-74
2024/01/09 01:08:27;;;;;;;3.83;3.00;;;-3.30;99.90;;;;;;5012266;28;20456;-74
2024/01/09 01:10:56;;;;;;;4.63;3.87;;;-3.40;99.90;;;;;;5013407;28;20843;-74
2024/01/09 01:13:25;;;;;;;6.97;4.07;;;-3.40;99.90;;;;;;5013392;28;20436;-74
2024/01/09 01:15:53;;;;;;;5.10;3.37;;;-3.40;99.90;;;;;;5012262;28;20452;-74
2024/01/09 01:18:21;;;;;;;4.73;3.90;;;-3.40;99.90;;;;;;5012564;28;20455;-74
2024/01/09 01:20:49;;;;;;;6.57;3.70;;;-3.40;99.90;;;;;;5014304;28;20552;-74
2024/01/09 01:23:18;;;;;;;4.10;3.27;;;-3.40;99.90;;;;;;5012369;28;20466;-74
2024/01/09 01:25:46;;;;;;;5.27;3.73;;;-3.50;99.90;;;;;;5013400;28;20496;-74
2024/01/09 01:28:16;;;;;;;4.97;3.70;;;-3.50;99.90;;;;;;5012342;28;20542;-74
2024/01/09 01:30:44;;;;;;;4.20;3.40;;;-3.50;99.90;;;;;;5011947;28;20475;-74
2024/01/09 01:33:13;;;;;;;5.40;3.40;;;-3.50;99.90;;;;;;5012007;28;20568;-74
2024/01/09 01:35:41;;;;;;;6.37;4.20;;;-3.50;99.90;;;;;;5013164;28;20439;-74
2024/01/09 01:38:10;;;;;;;5.90;4.00;;;-3.50;99.90;;;;;;5013106;28;20538;-74
2024/01/09 01:40:38;;;;;;;6.17;4.20;;;-3.60;99.90;;;;;;5011796;28;20470;-74
2024/01/09 01:43:06;;;;;;;5.30;4.10;;;-3.60;99.90;;;;;;5012243;28;20473;-74
2024/01/09 01:45:36;;;;;;;5.17;3.40;;;-3.60;99.90;;;;;;5013774;28;20448;-74
2024/01/09 01:48:05;;;;;;;4.03;3.20;;;-3.60;99.90;;;;;;5017149;28;20949;-74
2024/01/09 01:50:35;;;;;;;7.07;3.77;;;-3.70;99.90;;;;;;5016908;28;20832;-74
2024/01/09 01:53:05;;;;;;;6.60;3.97;;;-3.70;99.90;;;;;;5015632;28;20798;-74
2024/01/09 01:55:35;;;;;;;6.30;3.80;;;-3.70;99.90;;;;;;5016974;28;20482;-75
2024/01/09 01:58:05;;;;;;;5.83;3.97;;;-3.70;99.90;;;;;;5016476;28;20518;-74
2024/01/09 02:00:34;;;;;;;6.67;4.60;;;-3.70;99.90;;;;;;5016370;28;20452;-74
2024/01/09 02:03:04;;;;;;;5.80;3.60;;;-3.70;99.90;;;;;;5015105;28;20471;-74
2024/01/09 02:05:34;;;;;;;7.97;4.20;;;-3.70;99.90;;;;;;5016496;28;20516;-74
2024/01/09 02:08:02;;;;;;;6.90;4.60;;;-3.80;99.90;;;;;;5016159;28;20469;-74
2024/01/09 02:10:31;;;;;;;4.43;3.37;;;-3.80;99.90;;;;;;5016039;28;20452;-75
2024/01/09 02:12:59;;;;;;;5.57;3.63;;;-3.80;99.90;;;;;;5014901;28;20527;-74
2024/01/09 02:15:27;;;;;;;5.60;3.40;;;-3.80;99.90;;;;;;5016076;28;20442;-75
2024/01/09 02:17:55;;;;;;;8.17;4.30;;;-3.80;99.90;;;;;;5014929;28;20447;-74
2024/01/09 02:20:25;;;;;;;4.57;4.10;;;-3.80;99.90;;;;;;5016026;28;20518;-74
2024/01/09 02:22:53;;;;;;;7.90;4.20;;;-3.90;99.90;;;;;;5015806;28;20501;-74
2024/01/09 02:25:22;;;;;;;5.10;3.77;;;-3.90;99.90;;;;;;5016286;28;20486;-75
2024/01/09 02:28:02;;;;;;;9.90;4.93;;;-3.90;99.90;;;;;;5014559;28;20454;-74
2024/01/09 02:30:32;;;;;;;6.50;4.10;;;-3.90;99.90;;;;;;5014534;28;20478;-74
2024/01/09 02:33:01;;;;;;;6.57;4.00;;;-3.90;99.90;;;;;;5015740;28;20436;-75
2024/01/09 02:35:29;;;;;;;8.53;5.17;;;-3.90;99.90;;;;;;5015570;28;20475;-74
2024/01/09 02:37:58;;;;;;;5.23;3.67;;;-3.90;99.90;;;;;;5015889;28;20454;-74
2024/01/09 02:40:26;;;;;;;6.87;5.20;;;-4.00;99.90;;;;;;5014176;28;20476;-74
2024/01/09 02:42:55;;;;;;;5.90;4.07;;;-4.00;99.90;;;;;;5015874;28;20561;-75
2024/01/09 02:45:24;;;;;;;9.83;4.03;;;-4.00;99.90;;;;;;5013990;28;20456;-75
2024/01/09 02:47:53;;;;;;;6.83;4.50;;;-4.00;99.90;;;;;;5014194;28;20462;-75
2024/01/09 02:50:22;;;;;;;6.07;4.10;;;-4.10;99.90;;;;;;5013979;28;20466;-74
2024/01/09 02:52:50;;;;;;;4.97;3.83;;;-4.00;99.90;;;;;;5014140;28;20458;-74
2024/01/09 02:55:18;;;;;;;5.73;3.07;;;-4.10;99.90;;;;;;5016041;28;20849;-75
2024/01/09 02:57:47;;;;;;;5.23;3.70;;;-4.10;99.90;;;;;;5013140;28;20562;-74
2024/01/09 03:00:15;;;;;;;6.10;3.80;;;-4.10;99.90;;;;;;5015314;28;20455;-75
2024/01/09 03:02:44;;;;;;;4.87;3.80;;;-4.20;99.90;;;;;;5013781;28;20456;-75
2024/01/09 03:05:13;;;;;;;7.00;4.50;;;-4.20;99.90;;;;;;5015647;28;20448;-74
2024/01/09 03:07:42;;;;;;;6.37;4.30;;;-4.20;99.90;;;;;;5013694;28;20454;-75
2024/01/09 03:10:11;;;;;;;6.67;4.03;;;-4.20;99.90;;;;;;5013752;28;20506;-75
2024/01/09 03:12:39;;;;;;;5.50;3.97;;;-4.20;99.90;;;;;;5013669;28;20451;-75
2024/01/09 03:15:09;;;;;;;6.47;4.60;;;-4.20;99.90;;;;;;5013886;28;20954;-75
2024/01/09 03:17:37;;;;;;;5.97;4.07;;;-4.30;99.90;;;;;;5013588;28;20551;-75
2024/01/09 03:20:09;;;;;;;5.73;3.80;;;-4.30;99.90;;;;;;5013442;28;20518;-75
2024/01/09 03:22:38;;;;;;;6.30;4.00;;;-4.30;99.90;;;;;;5015412;28;20886;-75
2024/01/09 03:25:07;;;;;;;7.40;5.77;;;-4.30;99.90;;;;;;5013495;28;20512;-75
2024/01/09 03:27:35;;;;;;;7.30;4.13;;;-4.30;99.90;;;;;;5013390;28;20519;-75
2024/01/09 03:30:06;;;;;;;5.33;3.90;;;-4.30;99.90;;;;;;5013666;28;20849;-75
2024/01/09 03:32:34;;;;;;;5.67;3.90;;;-4.30;99.90;;;;;;5013611;28;20458;-74
2024/01/09 03:35:03;;;;;;;6.30;4.40;;;-4.30;99.90;;;;;;5013374;28;20492;-75
2024/01/09 03:37:31;;;;;;;6.97;4.50;;;-4.30;99.90;;;;;;5014642;28;20880;-76
2024/01/09 03:40:01;;;;;;;5.63;3.87;;;-4.40;99.90;;;;;;5013253;28;20594;-75
2024/01/09 03:42:29;;;;;;;6.47;4.60;;;-4.40;99.90;;;;;;5014193;28;20810;-75
2024/01/09 03:44:57;;;;;;;5.80;4.10;;;-4.40;99.90;;;;;;5019792;28;20502;-75
2024/01/09 03:47:25;;;;;;;5.97;4.47;;;-4.40;99.90;;;;;;5020690;28;20447;-75
2024/01/09 03:49:54;;;;;;;7.47;4.43;;;-4.40;99.90;;;;;;5020330;28;21072;-75
2024/01/09 03:52:23;;;;;;;7.50;4.47;;;-4.40;99.90;;;;;;5018174;28;20441;-75
2024/01/09 03:54:51;;;;;;;5.87;4.07;;;-4.40;99.90;;;;;;5019818;28;20445;-75
2024/01/09 03:57:20;;;;;;;5.90;3.90;;;-4.50;99.90;;;;;;5018242;28;20520;-74
2024/01/09 03:59:48;;;;;;;5.20;4.27;;;-4.50;99.90;;;;;;5017007;28;20455;-75
2024/01/09 04:02:17;;;;;;;5.83;4.27;;;-4.50;99.90;;;;;;5017019;28;20432;-75
2024/01/09 04:04:45;;;;;;;6.77;4.53;;;-4.50;99.90;;;;;;5016641;28;20558;-74
2024/01/09 04:07:13;;;;;;;7.13;4.50;;;-4.50;99.90;;;;;;5015767;28;20444;-75
2024/01/09 04:09:41;;;;;;;7.57;4.77;;;-4.50;99.90;;;;;;5014663;28;20504;-74
2024/01/09 04:12:10;;;;;;;6.33;4.80;;;-4.50;99.90;;;;;;5014809;28;20484;-74
2024/01/09 04:14:39;;;;;;;7.23;6.30;;;-4.60;99.90;;;;;;5014860;28;20442;-74
2024/01/09 04:17:08;;;;;;;12.53;7.30;;;-4.60;99.90;;;;;;5015917;28;20458;-75
2024/01/09 04:19:37;;;;;;;6.30;4.73;;;-4.60;99.90;;;;;;5015383;28;20567;-74
2024/01/09 04:22:06;;;;;;;7.80;4.43;;;-4.60;99.90;;;;;;5020432;28;20786;-74
2024/01/09 04:24:35;;;;;;;6.30;4.87;;;-4.60;99.90;;;;;;5020297;28;20534;-74
2024/01/09 04:27:03;;;;;;;6.53;4.93;;;-4.60;99.90;;;;;;5017488;28;20510;-74
2024/01/09 04:29:32;;;;;;;5.60;4.20;;;-4.60;99.90;;;;;;5017237;28;20468;-74
2024/01/09 04:32:02;;;;;;;5.67;4.40;;;-4.60;99.90;;;;;;5016779;28;20459;-74
2024/01/09 04:34:30;;;;;;;6.37;4.70;;;-4.60;99.90;;;;;;5015523;28;20873;-75
2024/01/09 04:36:58;;;;;;;8.60;4.73;;;-4.60;99.90;;;;;;5016664;28;20436;-74
2024/01/09 04:39:27;;;;;;;6.87;4.50;;;-4.70;99.90;;;;;;5014853;28;20494;-74
2024/01/09 04:41:57;;;;;;;7.47;4.60;;;-4.70;99.90;;;;;;5016173;28;20854;-74
2024/01/09 04:44:25;;;;;;;5.97;4.20;;;-4.70;99.90;;;;;;5014086;28;20474;-75
2024/01/09 04:46:53;;;;;;;8.20;4.87;;;-4.70;99.90;;;;;;5014218;28;20628;-75
2024/01/09 04:49:23;;;;;;;6.53;4.60;;;-4.70;99.90;;;;;;5013788;28;20464;-74
2024/01/09 04:51:52;;;;;;;6.53;4.00;;;-4.70;99.90;;;;;;5015559;28;20427;-75
2024/01/09 04:54:20;;;;;;;8.53;4.83;;;-4.70;99.90;;;;;;5013725;28;20519;-74
2024/01/09 04:56:48;;;;;;;6.53;4.70;;;-4.70;99.90;;;;;;5013561;28;20468;-74
2024/01/09 04:59:17;;;;;;;5.10;4.37;;;-4.70;99.90;;;;;;5014853;28;20467;-75
2024/01/09 05:01:49;;;;;;;6.50;4.50;;;-4.70;99.90;;;;;;5015076;28;20444;-75
2024/01/09 05:04:18;;;;;;;5.93;4.40;;;-4.70;99.90;;;;;;5013737;28;20566;-74
2024/01/09 05:06:49;;;;;;;6.20;4.67;;;-4.70;99.90;;;;;;5014094;28;20476;-74
2024/01/09 05:09:17;;;;;;;5.83;4.20;;;-4.70;99.90;;;;;;5014074;28;20476;-75
2024/01/09 05:11:45;;;;;;;7.47;4.73;;;-4.70;99.90;;;;;;5014714;28;20460;-75
2024/01/09 05:14:14;;;;;;;7.10;4.60;;;-4.70;99.90;;;;;;5015320;28;20933;-74
2024/01/09 05:16:42;;;;;;;8.30;4.97;;;-4.70;99.90;;;;;;5014087;28;21003;-75
2024/01/09 05:19:10;;;;;;;7.00;4.70;;;-4.70;99.90;;;;;;5013697;28;20481;-74
2024/01/09 05:21:39;;;;;;;6.37;5.33;;;-4.70;99.90;;;;;;5015190;28;20447;-74
2024/01/09 05:24:08;;;;;;;7.80;4.73;;;-4.70;99.90;;;;;;5027678;28;20477;-75
2024/01/09 05:26:37;;;;;;;8.97;4.83;;;-4.70;99.90;;;;;;5033211;28;20432;-74
2024/01/09 05:29:05;;;;;;;8.10;4.60;;;-4.70;99.90;;;;;;5026405;28;20440;-74
2024/01/09 05:31:33;;;;;;;6.73;4.87;;;-4.70;99.90;;;;;;5019363;28;20975;-74
2024/01/09 05:34:01;;;;;;;8.70;6.23;;;-4.80;99.90;;;;;;5031847;28;20456;-74
2024/01/09 05:36:30;;;;;;;6.70;5.10;;;-4.80;99.90;;;;;;5032808;28;20509;-74
2024/01/09 05:38:58;;;;;;;6.90;4.73;;;-4.80;99.90;;;;;;5033187;28;20467;-74
2024/01/09 05:41:28;;;;;;;7.87;4.50;;;-4.80;99.90;;;;;;5034085;28;20524;-75
2024/01/09 05:43:56;;;;;;;7.53;5.10;;;-4.80;99.90;;;;;;5035570;28;20465;-76
2024/01/09 05:46:25;;;;;;;7.17;6.43;;;-4.80;99.90;;;;;;5033398;28;20456;-75
2024/01/09 05:48:53;;;;;;;8.33;6.10;;;-4.90;99.90;;;;;;5032106;28;20442;-74
2024/01/09 05:51:22;;;;;;;9.90;7.33;;;-4.90;99.90;;;;;;5031930;28;20440;-74
2024/01/09 05:53:50;;;;;;;7.23;6.20;;;-4.90;99.90;;;;;;5031480;28;20436;-75
2024/01/09 05:56:19;;;;;;;9.30;6.40;;;-4.90;99.90;;;;;;5016474;28;20527;-75
2024/01/09 05:58:49;;;;;;;9.37;6.10;;;-4.90;99.90;;;;;;5016148;28;20544;-74
2024/01/09 06:01:17;;;;;;;6.70;4.67;;;-4.90;99.90;;;;;;5016221;28;20484;-74
2024/01/09 06:03:45;;;;;;;6.40;5.63;;;-4.90;99.90;;;;;;5017878;28;20444;-74
2024/01/09 06:06:14;;;;;;;6.80;5.70;;;-4.90;99.90;;;;;;5016209;28;20480;-74
2024/01/09 06:08:42;;;;;;;7.20;5.53;;;-4.90;99.90;;;;;;5016150;28;20539;-74
2024/01/09 06:11:10;;;;;;;10.77;7.00;;;-4.90;99.90;;;;;;5015937;28;20522;-74
2024/01/09 06:13:38;;;;;;;6.60;5.77;;;-4.90;99.90;;;;;;5017301;28;20431;-74
2024/01/09 06:16:08;;;;;;;7.60;5.47;;;-4.90;99.90;;;;;;5016961;28;20444;-74
2024/01/09 06:18:37;;;;;;;7.87;5.63;;;-4.90;99.90;;;;;;5016875;28;20444;-74
2024/01/09 06:21:05;;;;;;;7.80;6.70;;;-4.90;99.90;;;;;;5015568;28;20479;-74
2024/01/09 06:23:34;;;;;;;7.43;6.37;;;-5.00;99.90;;;;;;5017161;28;20531;-74
2024/01/09 06:26:02;;;;;;;9.77;6.20;;;-5.00;99.90;;;;;;5016518;28;20467;-75
2024/01/09 06:28:30;;;;;;;7.50;5.90;;;-5.00;99.90;;;;;;5016743;28;20436;-76
2024/01/09 06:30:59;;;;;;;6.10;5.43;;;-5.00;99.90;;;;;;5015226;28;20510;-74
2024/01/09 06:33:29;;;;;;;7.27;5.40;;;-5.00;99.90;;;;;;5015242;28;20475;-74
2024/01/09 06:35:57;;;;;;;8.00;5.93;;;-5.00;99.90;;;;;;5015032;28;20452;-74
2024/01/09 06:38:25;;;;;;;6.80;5.60;;;-5.00;99.90;;;;;;5016502;28;20450;-74
2024/01/09 06:40:53;;;;;;;10.20;6.60;;;-5.00;99.90;;;;;;5016259;28;20495;-74
2024/01/09 06:43:22;;;;;;;8.40;5.80;;;-5.00;99.90;;;;;;5016282;28;20455;-74
2024/01/09 06:45:50;;;;;;;10.00;6.70;;;-5.00;99.90;;;;;;5014890;28;20570;-74
2024/01/09 06:48:18;;;;;;;9.37;7.73;;;-5.00;99.90;;;;;;5014867;28;20483;-74
2024/01/09 06:50:48;;;;;;;8.53;7.70;;;-5.10;99.90;;;;;;5015950;28;20522;-74
2024/01/09 06:53:16;;;;;;;9.40;7.60;;;-5.10;99.90;;;;;;5014750;28;20534;-74
2024/01/09 06:55:45;;;;;;;11.13;7.80;;;-5.10;99.90;;;;;;5014797;28;20455;-74
2024/01/09 06:58:16;;;;;;;13.60;7.10;;;-5.10;99.90;;;;;;5014901;28;20459;-74
2024/01/09 07:00:45;;;;;;;11.20;7.47;;;-5.10;99.90;;;;;;5014888;28;20486;-74
2024/01/09 07:03:13;;;;;;;7.77;6.70;;;-5.10;99.90;;;;;;5014818;28;20451;-74
2024/01/09 07:05:41;;;;;;;8.90;7.67;;;-5.10;99.90;;;;;;5015858;28;20509;-74
2024/01/09 07:08:11;;;;;;;8.03;6.50;;;-5.10;99.90;;;;;;5015830;28;20936;-74
2024/01/09 07:10:39;;;;;;;7.20;5.43;;;-5.10;99.90;;;;;;5014489;28;20929;-74
2024/01/09 07:13:08;;;;;;;7.43;5.80;;;-5.10;99.90;;;;;;5015821;28;20436;-76
2024/01/09 07:15:37;;;;;;;8.43;6.40;;;-5.10;99.90;;;;;;5015769;28;20505;-74
2024/01/09 07:18:05;;;;;;;11.13;6.37;;;-5.10;99.90;;;;;;5014380;28;20498;-74
2024/01/09 07:20:34;;;;;;;8.10;5.80;;;-5.10;99.90;;;;;;5015503;28;20990;-74
2024/01/09 07:23:02;;;;;;;9.33;6.67;;;-5.10;99.90;;;;;;5015545;28;20437;-74
2024/01/09 07:25:45;;;;;;;6.93;6.00;;;-5.10;99.90;;;;;;5015601;28;20455;-74
2024/01/09 07:28:13;;;;;;;9.17;6.27;;;-5.20;99.90;;;;;;5014119;28;20467;-74
2024/01/09 07:30:41;;;;;;;10.43;7.17;;;-5.20;99.90;;;;;;5015576;28;20502;-74
2024/01/09 07:33:10;;;;;;;9.60;7.07;;;-5.20;99.90;;;;;;5015424;28;20443;-74
2024/01/09 07:35:38;;;;;;;7.77;5.90;;;-5.20;99.90;;;;;;5014086;28;20456;-74
2024/01/09 07:38:07;;;;;;;10.00;7.07;;;-5.20;99.90;;;;;;5015576;28;20498;-74
2024/01/09 07:40:35;;;;;;;9.83;5.87;;;-5.20;99.90;;;;;;5013965;28;20475;-74
2024/01/09 07:43:05;;;;;;;6.67;5.93;;;-5.20;99.90;;;;;;5015058;28;20436;-74
2024/01/09 07:45:33;;;;;;;10.20;6.37;;;-5.20;99.90;;;;;;5013244;28;20486;-74
2024/01/09 07:48:03;;;;;;;8.20;6.10;;;-5.10;99.90;;;;;;5013656;28;20533;-74
2024/01/09 07:50:31;;;;;;;7.83;7.00;;;-5.10;99.90;;;;;;5013962;28;20821;-74
2024/01/09 07:53:00;;;;;;;7.97;5.63;;;-5.20;99.90;;;;;;5015442;28;20448;-74
2024/01/09 07:55:32;;;;;;;6.80;5.83;;;-5.20;99.90;;;;;;5014047;28;20806;-74
2024/01/09 07:58:01;;;;;;;8.60;5.93;;;-5.20;99.90;;;;;;5014872;28;20436;-74
2024/01/09 08:00:32;;;;;;;8.90;6.00;;;-5.10;99.90;;;;;;5013609;28;20464;-74
2024/01/09 08:03:03;;;;;;;9.07;6.23;;;-5.10;99.90;;;;;;5015239;28;20420;-74
2024/01/09 08:05:32;;;;;;;8.13;6.07;;;-5.10;99.90;;;;;;5013622;28;20817;-74
2024/01/09 08:08:01;;;;;;;9.30;6.60;;;-5.10;99.90;;;;;;5014871;28;20472;-74
2024/01/09 08:10:30;;;;;;;7.77;6.30;;;-5.10;99.90;;;;;;5014617;28;20510;-74
2024/01/09 08:12:58;;;;;;;11.80;7.10;;;-5.10;99.90;;;;;;5015204;28;21004;-74
2024/01/09 08:15:26;;;;;;;9.53;7.20;;;-5.10;99.90;;;;;;5013842;28;20448;-74
2024/01/09 08:17:56;;;;;;;7.80;6.27;;;-5.10;99.90;;;;;;5013343;28;21003;-73
2024/01/09 08:20:25;;;;;;;12.53;7.47;;;-5.10;99.90;;;;;;5013481;28;20552;-74
2024/01/09 08:22:53;;;;;;;9.37;6.47;;;-5.10;99.90;;;;;;5013473;28;20961;-74
2024/01/09 08:25:21;;;;;;;12.07;7.90;;;-5.00;99.90;;;;;;5013372;28;20898;-74
2024/01/09 08:27:50;;;;;;;10.53;7.43;;;-5.00;99.90;;;;;;5014678;28;20511;-75
2024/01/09 08:30:19;;;;;;;9.90;7.50;;;-5.00;99.90;;;;;;5013444;28;20479;-75
2024/01/09 08:32:47;;;;;;;11.00;8.33;;;-5.00;99.90;;;;;;5013642;28;20459;-75
2024/01/09 08:35:17;;;;;;;11.20;7.97;;;-5.00;99.90;;;;;;5013373;28;20474;-75
2024/01/09 08:37:45;;;;;;;11.57;8.80;;;-5.00;99.90;;;;;;5013129;28;20836;-75
2024/01/09 08:40:14;;;;;;;9.07;7.57;;;-4.90;99.90;;;;;;5012886;28;21000;-75
2024/01/09 08:42:42;;;;;;;9.93;7.70;;;-4.90;99.90;;;;;;5013192;28;20463;-75
2024/01/09 08:45:10;;;;;;;9.63;6.80;;;-4.90;99.90;;;;;;5014376;28;20456;-75
2024/01/09 08:47:39;;;;;;;10.00;7.87;;;-4.80;99.90;;;;;;5013279;28;20574;-74
2024/01/09 08:50:07;;;;;;;12.60;8.20;;;-4.80;99.90;;;;;;5012998;28;20834;-75
2024/01/09 08:52:37;;;;;;;12.30;7.80;;;-4.80;99.90;;;;;;5014546;28;20519;-75
2024/01/09 08:55:06;;;;;;;9.87;8.60;;;-4.80;99.90;;;;;;5013277;28;20534;-75
2024/01/09 08:57:35;;;;;;;9.50;8.30;;;-4.70;99.90;;;;;;5017594;28;20425;-75
2024/01/09 09:00:04;;;;;;;12.97;8.50;;;-4.70;99.90;;;;;;5016746;28;20491;-75
2024/01/09 09:02:32;;;;;;;10.80;7.70;;;-4.70;99.90;;;;;;5017076;28;20471;-74
2024/01/09 09:05:00;;;;;;;13.93;8.20;;;-4.70;99.90;;;;;;5016832;28;20858;-75
2024/01/09 09:07:29;;;;;;;10.53;7.73;;;-4.60;99.90;;;;;;5016743;28;20817;-75
2024/01/09 09:09:58;;;;;;;11.40;8.27;;;-4.60;99.90;;;;;;5017814;28;21031;-75
2024/01/09 09:12:28;;;;;;;11.13;7.53;;;-4.60;99.90;;;;;;5016741;28;20490;-75
2024/01/09 09:14:56;;;;;;;7.77;6.90;;;-4.60;99.90;;;;;;5016713;28;20502;-75
2024/01/09 09:17:25;;;;;;;9.73;7.03;;;-4.60;99.90;;;;;;5016748;28;20451;-75
2024/01/09 09:19:53;;;;;;;9.90;7.20;;;-4.50;99.90;;;;;;5017680;28;20463;-75
2024/01/09 09:22:23;;;;;;;8.50;7.07;;;-4.50;99.90;;;;;;5016435;28;20550;-75
2024/01/09 09:24:52;;;;;;;8.07;7.23;;;-4.40;99.90;;;;;;5017923;28;20423;-75
2024/01/09 09:27:22;;;;;;;8.03;7.13;;;-4.40;99.90;;;;;;5016101;28;20477;-75
2024/01/09 09:29:52;;;;;;;9.33;7.87;;;-4.40;99.90;;;;;;5016016;28;20529;-75
2024/01/09 09:32:20;;;;;;;11.93;7.50;;;-4.30;99.90;;;;;;5017849;28;20424;-75
2024/01/09 09:34:48;;;;;;;9.00;6.70;;;-4.30;99.90;;;;;;5015904;28;20523;-75
2024/01/09 09:37:20;;;;;;;9.70;7.80;;;-4.30;99.90;;;;;;5015820;28;20520;-75
2024/01/09 09:39:48;;;;;;;10.57;7.57;;;-4.30;99.90;;;;;;5015913;28;20517;-75
2024/01/09 09:42:16;;;;;;;10.57;7.33;;;-4.20;99.90;;;;;;5016002;28;20462;-75
2024/01/09 09:44:50;;;;;;;9.00;7.00;;;-4.20;99.90;;;;;;5016828;28;20460;-75
2024/01/09 09:47:20;;;;;;;11.60;8.30;;;-4.20;99.90;;;;;;5015558;28;20889;-75
2024/01/09 09:49:50;;;;;;;9.47;8.17;;;-4.20;99.90;;;;;;5015470;28;20521;-74
2024/01/09 09:52:20;;;;;;;8.17;6.80;;;-4.10;99.90;;;;;;5016772;28;20448;-75
2024/01/09 09:54:49;;;;;;;8.07;7.27;;;-4.20;99.90;;;;;;5015312;28;20782;-75
2024/01/09 09:57:19;;;;;;;8.77;6.20;;;-4.10;99.90;;;;;;5017230;28;20445;-75
2024/01/09 09:59:49;;;;;;;9.40;7.50;;;-4.00;99.90;;;;;;5015273;28;20518;-75
2024/01/09 10:02:24;;;;;;;10.53;6.70;;;-4.00;99.90;;;;;;5016967;28;20450;-74
2024/01/09 10:04:55;;;;;;;9.30;6.60;;;-4.00;99.90;;;;;;5015346;28;20812;-75
2024/01/09 10:07:23;;;;;;;8.43;6.07;;;-3.90;99.90;;;;;;5015955;28;20478;-75
2024/01/09 10:09:55;;;;;;;7.07;5.80;;;-3.90;99.90;;;;;;5015136;28;20472;-75
2024/01/09 10:12:24;;;;;;;8.60;7.70;;;-3.80;99.90;;;;;;5016356;28;20428;-75
2024/01/09 10:15:07;;;;;;;8.03;5.50;;;-3.70;99.90;;;;;;5016737;28;20418;-75
2024/01/09 10:17:36;;;;;;;6.17;4.77;;;-3.70;99.90;;;;;;5016333;28;20421;-75
2024/01/09 10:20:06;;;;;;;6.43;5.00;;;-3.70;99.90;;;;;;5015564;28;20817;-75
2024/01/09 10:22:35;;;;;;;6.13;4.37;;;-3.60;99.90;;;;;;5017050;28;20503;-75
2024/01/09 10:25:05;;;;;;;6.37;5.33;;;-3.50;99.90;;;;;;5015158;28;20964;-75
2024/01/09 10:27:35;;;;;;;6.80;6.10;;;-3.60;99.90;;;;;;5015074;28;20500;-75
2024/01/09 10:30:07;;;;;;;10.83;6.17;;;-3.50;99.90;;;;;;5016547;28;20463;-75
2024/01/09 10:32:37;;;;;;;5.80;4.87;;;-3.40;99.90;;;;;;5016529;28;20431;-75
2024/01/09 10:35:09;;;;;;;6.77;5.10;;;-3.40;99.90;;;;;;5016887;28;20426;-75
2024/01/09 10:37:37;;;;;;;7.03;5.43;;;-3.40;99.90;;;;;;5019867;28;20443;-75
2024/01/09 10:40:07;;;;;;;8.53;5.50;;;-3.30;99.90;;;;;;5017729;28;21005;-75
2024/01/09 10:42:45;;;;;;;5.90;4.20;;;-3.30;99.90;;;;;;5017759;28;21008;-75
2024/01/09 10:45:16;;;;;;;7.73;4.60;;;-3.20;99.90;;;;;;5014739;28;20459;-75
2024/01/09 10:47:45;;;;;;;6.83;4.50;;;-3.20;99.90;;;;;;5016174;28;20517;-75
2024/01/09 10:50:15;;;;;;;6.60;4.83;;;-3.10;99.90;;;;;;5014878;28;20481;-75
2024/01/09 10:52:44;;;;;;;6.87;5.20;;;-3.10;99.90;;;;;;5015919;28;20443;-75
2024/01/09 10:55:13;;;;;;;4.60;3.60;;;-3.00;99.90;;;;;;5015511;28;20432;-75
2024/01/09 10:57:42;;;;;;;5.37;3.90;;;-3.00;99.90;;;;;;5014542;28;20479;-75
2024/01/09 11:00:12;;;;;;;5.30;4.40;;;-2.90;99.90;;;;;;5014026;28;20478;-75
2024/01/09 11:02:42;;;;;;;5.10;4.60;;;-2.90;99.90;;;;;;5014209;28;20995;-75
2024/01/09 11:05:11;;;;;;;5.23;4.07;;;-2.80;99.90;;;;;;5014134;28;20452;-75
2024/01/09 11:07:42;;;;;;;6.03;4.50;;;-2.80;99.90;;;;;;5014041;28;21012;-75
2024/01/09 11:10:16;;;;;;;4.53;3.90;;;-2.70;99.90;;;;;;5015119;28;20459;-75
2024/01/09 11:12:48;;;;;;;6.10;4.13;;;-2.70;99.90;;;;;;5014112;28;20454;-75
2024/01/09 11:15:21;;;;;;;5.10;4.33;;;-2.70;99.90;;;;;;5015120;28;20846;-75
2024/01/09 11:17:55;;;;;;;4.10;3.33;;;-2.60;99.90;;;;;;5013759;28;20917;-75
2024/01/09 11:20:23;;;;;;;4.00;3.60;;;-2.60;99.90;;;;;;5015079;28;20475;-75
2024/01/09 11:22:52;;;;;;;5.03;4.30;;;-2.50;99.90;;;;;;5015677;28;20440;-75
2024/01/09 11:25:23;;;;;;;5.43;4.20;;;-2.50;99.90;;;;;;5013537;28;20451;-75
2024/01/09 11:27:53;;;;;;;4.90;3.83;;;-2.40;99.90;;;;;;5013486;28;20478;-75
2024/01/09 11:30:27;;;;;;;7.53;3.90;;;-2.40;99.90;;;;;;5013662;28;20472;-75
2024/01/09 11:32:58;;;;;;;4.47;3.50;;;-2.40;99.90;;;;;;5013432;28;20503;-75
2024/01/09 11:35:28;;;;;;;3.63;3.23;;;-2.40;99.90;;;;;;5014680;28;20420;-75
2024/01/09 11:38:00;;;;;;;4.10;3.00;;;-2.40;99.90;;;;;;5013288;28;20510;-75
2024/01/09 11:40:30;;;;;;;6.63;3.47;;;-2.30;99.90;;;;;;5013322;28;20551;-75
2024/01/09 11:42:58;;;;;;;4.60;3.70;;;-2.30;99.90;;;;;;5013546;28;20864;-75
2024/01/09 11:45:27;;;;;;;4.33;3.40;;;-2.30;99.90;;;;;;5014468;28;20948;-75
2024/01/09 11:47:55;;;;;;;4.80;3.40;;;-2.30;99.90;;;;;;5013049;28;20890;-75
2024/01/09 11:50:25;;;;;;;4.47;3.80;;;-2.30;99.90;;;;;;5013110;28;20466;-75
2024/01/09 11:52:55;;;;;;;5.13;4.63;;;-2.20;99.90;;;;;;5013221;28;20448;-75
2024/01/09 11:55:25;;;;;;;12.30;10.10;;;-2.20;99.90;;;;;;5013196;28;20834;-75
2024/01/09 11:57:53;;;;;;;10.10;7.63;;;-2.20;99.90;;;;;;5014865;28;20492;-75
2024/01/09 12:00:22;;;;;;;9.63;7.50;;;-2.10;99.90;;;;;;5013317;28;20472;-75
2024/01/09 12:02:51;;;;;;;8.70;7.80;;;-2.10;99.90;;;;;;5014651;28;20945;-75
2024/01/09 12:05:19;;;;;;;13.83;9.40;;;-2.00;99.90;;;;;;5014278;28;20432;-75
2024/01/09 12:07:49;;;;;;;6.93;6.20;;;-2.00;99.90;;;;;;5012895;28;20507;-75
2024/01/09 12:10:17;;;;;;;5.67;3.57;;;-2.00;99.90;;;;;;5013015;28;20554;-75
2024/01/09 12:13:04;;;;;;;4.20;3.17;;;-1.90;99.90;;;;;;5013441;28;20444;-75
2024/01/09 12:15:32;;;;;;;5.27;3.50;;;-1.90;99.90;;;;;;5012798;28;20542;-75
2024/01/09 12:18:01;;;;;;;4.63;2.93;;;-1.90;99.90;;;;;;5012900;28;20569;-75
2024/01/09 12:20:31;;;;;;;4.17;2.80;;;-1.80;99.90;;;;;;5013989;28;20567;-74
2024/01/09 12:23:01;;;;;;;5.23;3.27;;;-1.80;99.90;;;;;;5014466;28;20972;-75
2024/01/09 12:25:30;;;;;;;5.80;3.90;;;-1.80;99.90;;;;;;5012737;28;20452;-76
2024/01/09 12:27:59;;;;;;;4.83;3.63;;;-1.70;99.90;;;;;;5014539;28;20507;-75
2024/01/09 12:30:28;;;;;;;4.20;3.60;;;-1.70;99.90;;;;;;5013672;28;20514;-75
2024/01/09 12:32:56;;;;;;;5.50;3.10;;;-1.60;99.90;;;;;;5013920;28;20468;-76
2024/01/09 12:35:26;;;;;;;4.40;2.80;;;-1.60;99.90;;;;;;5014010;28;20467;-75
2024/01/09 12:37:54;;;;;;;3.60;2.83;;;-1.50;99.90;;;;;;5012603;28;20462;-75
2024/01/09 12:40:24;;;;;;;3.80;2.80;;;-1.50;99.90;;;;;;5013786;28;20510;-75
2024/01/09 12:43:11;;;;;;;5.03;3.40;;;-1.50;99.90;;;;;;5013838;28;20440;-76
2024/01/09 12:45:41;;;;;;;4.43;2.80;;;-1.50;99.90;;;;;;5012428;28;20467;-75
2024/01/09 12:48:10;;;;;;;5.40;3.70;;;-1.40;99.90;;;;;;5014349;28;20460;-77
2024/01/09 12:50:38;;;;;;;7.10;2.87;;;-1.40;99.90;;;;;;5012506;28;20467;-76
2024/01/09 12:53:07;;;;;;;6.03;3.13;;;-1.40;99.90;;;;;;5013681;28;20531;-76
2024/01/09 12:55:37;;;;;;;4.20;2.60;;;-1.30;99.90;;;;;;5012528;28;20443;-75